Time;durP1;ratioP1;P1;durP2;ratioP2;P2;SDS_P1;SDS_P2;PMS_P1;PMS_P2;Temp;Humidity;BMP_temperature;BMP_pressure;BME280_temperature;BME280_humidity;BME280_pressure;Samples;Min_cycle;Max_cycle;Signal;HPM_P1;HPM_P2
2022/09/06 00:00:25;;;;;;;2.40;2.20;;;26.70;45.90;;;;;;5110173;27;45141;-74
2022/09/06 00:02:52;;;;;;;3.92;1.90;;;26.70;45.30;;;;;;5110344;27;45319;-74
2022/09/06 00:05:18;;;;;;;3.25;2.13;;;26.70;45.30;;;;;;5109348;27;46641;-74
2022/09/06 00:07:45;;;;;;;2.67;1.90;;;26.60;45.30;;;;;;5109337;27;45209;-74
2022/09/06 00:10:12;;;;;;;2.30;2.05;;;26.60;46.00;;;;;;5110081;27;45346;-74
2022/09/06 00:12:40;;;;;;;3.40;2.10;;;26.60;45.30;;;;;;5110054;27;45407;-74
2022/09/06 00:15:08;;;;;;;2.17;1.98;;;26.60;45.40;;;;;;5109922;27;45288;-74
2022/09/06 00:17:35;;;;;;;2.35;2.15;;;26.60;45.60;;;;;;5112301;27;45252;-75
2022/09/06 00:20:02;;;;;;;2.40;2.20;;;26.60;45.40;;;;;;5130538;27;45305;-74
2022/09/06 00:22:29;;;;;;;3.22;2.10;;;26.50;45.60;;;;;;5130821;27;45193;-74
2022/09/06 00:24:56;;;;;;;2.30;2.10;;;26.50;45.60;;;;;;5130168;27;46623;-74
2022/09/06 00:27:23;;;;;;;1.95;1.85;;;26.50;45.50;;;;;;5129454;27;45398;-74
2022/09/06 00:29:51;;;;;;;2.17;1.98;;;26.50;45.50;;;;;;5129384;27;45294;-74
2022/09/06 00:32:18;;;;;;;2.65;1.98;;;26.50;45.50;;;;;;5109889;27;45403;-74
2022/09/06 00:34:45;;;;;;;3.35;2.03;;;26.50;45.50;;;;;;5109379;27;45224;-74
2022/09/06 00:37:11;;;;;;;3.03;2.30;;;26.40;45.60;;;;;;5109195;27;45251;-74
2022/09/06 00:39:38;;;;;;;2.15;1.77;;;26.40;45.60;;;;;;5109639;27;45379;-74
2022/09/06 00:42:08;;;;;;;2.30;2.10;;;26.40;45.60;;;;;;5109607;27;45362;-75
2022/09/06 00:44:35;;;;;;;1.90;1.80;;;26.40;45.50;;;;;;5109292;27;46338;-74
2022/09/06 00:47:04;;;;;;;2.17;2.03;;;26.40;45.50;;;;;;5109247;27;45226;-75
2022/09/06 00:49:31;;;;;;;2.45;2.25;;;26.40;45.60;;;;;;5109266;27;45437;-74
2022/09/06 00:52:00;;;;;;;2.30;2.05;;;26.40;45.70;;;;;;5108950;27;45111;-74
2022/09/06 00:54:27;;;;;;;2.35;2.15;;;26.40;45.60;;;;;;5108226;27;46611;-74
2022/09/06 00:56:54;;;;;;;2.20;2.00;;;26.40;45.80;;;;;;5109052;27;45356;-74
2022/09/06 00:59:21;;;;;;;2.00;1.80;;;26.40;46.30;;;;;;5109352;27;45331;-74
2022/09/06 01:01:48;;;;;;;2.60;2.30;;;26.30;45.70;;;;;;5109585;27;45338;-74
2022/09/06 01:04:16;;;;;;;2.10;1.95;;;26.30;45.80;;;;;;5108982;27;46335;-74
2022/09/06 01:06:48;;;;;;;3.05;1.83;;;26.30;45.70;;;;;;5108944;27;45262;-74
2022/09/06 01:09:23;;;;;;;2.17;1.90;;;26.30;45.70;;;;;;5108943;27;45270;-74
2022/09/06 01:12:05;;;;;;;2.75;2.42;;;26.30;45.80;;;;;;5109212;27;45157;-74
2022/09/06 01:14:40;;;;;;;2.50;2.03;;;26.30;46.10;;;;;;5108625;27;46352;-74
2022/09/06 01:17:10;;;;;;;2.10;1.90;;;26.30;46.30;;;;;;5108886;27;45294;-74
2022/09/06 01:20:09;;;;;;;2.00;1.80;;;26.30;46.20;;;;;;5128902;27;45125;-74
2022/09/06 01:23:00;;;;;;;1.90;1.80;;;26.20;46.10;;;;;;5114848;27;45530;-74
2022/09/06 01:25:35;;;;;;;2.25;2.03;;;26.20;46.00;;;;;;5129169;27;46667;-74
2022/09/06 01:28:27;;;;;;;3.05;2.00;;;26.20;46.20;;;;;;5129228;27;45215;-74
2022/09/06 01:31:00;;;;;;;2.05;1.85;;;26.20;46.20;;;;;;5119248;27;45183;-73
2022/09/06 01:33:30;;;;;;;2.95;2.20;;;26.20;46.30;;;;;;5108385;27;45224;-74
2022/09/06 01:35:58;;;;;;;2.33;2.00;;;26.20;46.20;;;;;;5107615;27;45231;-74
2022/09/06 01:38:25;;;;;;;1.90;1.80;;;26.20;46.00;;;;;;5107179;27;45342;-74
2022/09/06 01:40:52;;;;;;;2.47;2.17;;;26.10;45.80;;;;;;5108514;27;45321;-74
2022/09/06 01:43:23;;;;;;;3.28;2.00;;;26.10;46.00;;;;;;5108640;27;45374;-74
2022/09/06 01:45:55;;;;;;;3.88;1.90;;;26.10;46.10;;;;;;5108232;27;46691;-74
2022/09/06 01:48:26;;;;;;;2.10;2.00;;;26.10;46.40;;;;;;5108179;27;45235;-74
2022/09/06 01:50:58;;;;;;;2.15;1.90;;;26.00;46.50;;;;;;5108287;27;45266;-74
2022/09/06 01:53:54;;;;;;;2.15;1.95;;;26.00;46.40;;;;;;5108472;27;45555;-74
2022/09/06 01:56:25;;;;;;;1.98;1.80;;;26.00;46.30;;;;;;5108022;27;45370;-74
2022/09/06 01:59:01;;;;;;;2.38;2.15;;;26.00;46.80;;;;;;5108193;27;45274;-74
2022/09/06 02:01:29;;;;;;;2.00;1.90;;;26.00;47.20;;;;;;5108288;27;45343;-74
2022/09/06 02:03:59;;;;;;;2.35;2.15;;;26.00;46.90;;;;;;5108331;27;45293;-74
2022/09/06 02:06:27;;;;;;;2.20;1.95;;;26.00;47.60;;;;;;5107913;27;45185;-74
2022/09/06 02:08:56;;;;;;;2.90;2.60;;;26.00;47.00;;;;;;5108020;27;45277;-74
2022/09/06 02:11:22;;;;;;;2.88;1.98;;;26.00;47.10;;;;;;5108094;27;45251;-74
2022/09/06 02:13:51;;;;;;;2.58;1.90;;;26.00;47.20;;;;;;5108252;27;45122;-74
2022/09/06 02:16:20;;;;;;;2.65;1.90;;;26.00;47.10;;;;;;5107659;27;46661;-74
2022/09/06 02:18:49;;;;;;;2.88;1.95;;;26.00;47.10;;;;;;5120692;27;45218;-74
2022/09/06 02:21:17;;;;;;;2.78;2.03;;;26.00;46.80;;;;;;5128808;27;45206;-74
2022/09/06 02:23:44;;;;;;;2.40;1.85;;;26.00;47.10;;;;;;5128664;27;45344;-74
2022/09/06 02:26:13;;;;;;;3.08;2.28;;;26.00;47.10;;;;;;5128255;27;46621;-74
2022/09/06 02:28:39;;;;;;;2.38;2.17;;;25.90;46.90;;;;;;5128217;27;45187;-74
2022/09/06 02:31:09;;;;;;;2.20;2.00;;;25.90;47.00;;;;;;5116862;27;45231;-74
2022/09/06 02:33:38;;;;;;;1.90;1.80;;;25.90;47.00;;;;;;5107964;27;45343;-73
2022/09/06 02:36:06;;;;;;;2.50;2.10;;;25.90;46.30;;;;;;5107480;27;45757;-74
2022/09/06 02:38:34;;;;;;;2.35;2.15;;;25.90;46.20;;;;;;5107313;27;45307;-74
2022/09/06 02:41:01;;;;;;;3.95;1.83;;;25.90;46.30;;;;;;5107893;27;45301;-74
2022/09/06 02:43:27;;;;;;;3.00;2.45;;;25.90;46.70;;;;;;5107287;27;45323;-73
2022/09/06 02:45:54;;;;;;;2.28;1.90;;;25.90;46.70;;;;;;5106692;27;45466;-73
2022/09/06 02:48:21;;;;;;;2.13;1.83;;;25.90;46.50;;;;;;5107294;27;45224;-73
2022/09/06 02:50:49;;;;;;;2.28;1.90;;;25.90;46.90;;;;;;5107415;27;45230;-73
2022/09/06 02:53:16;;;;;;;2.13;1.95;;;25.90;46.80;;;;;;5107624;27;45375;-73
2022/09/06 02:55:43;;;;;;;2.45;2.03;;;25.90;46.40;;;;;;5107397;27;46343;-74
2022/09/06 02:58:10;;;;;;;3.00;2.10;;;25.80;46.60;;;;;;5107143;27;45201;-74
2022/09/06 03:00:37;;;;;;;2.28;2.08;;;25.80;46.60;;;;;;5107529;27;45239;-74
2022/09/06 03:03:04;;;;;;;2.60;2.05;;;25.80;46.90;;;;;;5107432;27;45306;-74
2022/09/06 03:05:31;;;;;;;2.72;1.92;;;25.80;47.50;;;;;;5104546;27;45266;-74
2022/09/06 03:07:59;;;;;;;2.33;2.08;;;25.80;47.00;;;;;;5107007;27;45260;-74
2022/09/06 03:10:26;;;;;;;2.55;1.95;;;25.80;47.10;;;;;;5107302;27;45251;-74
2022/09/06 03:12:53;;;;;;;2.70;2.20;;;25.80;47.10;;;;;;5107407;27;45464;-73
2022/09/06 03:15:20;;;;;;;2.30;2.08;;;25.80;47.20;;;;;;5106982;27;45475;-74
2022/09/06 03:17:47;;;;;;;2.58;2.10;;;25.70;47.10;;;;;;5111167;27;45495;-74
2022/09/06 03:20:13;;;;;;;2.70;1.92;;;25.70;47.30;;;;;;5127965;27;45180;-74
2022/09/06 03:22:40;;;;;;;3.20;2.15;;;25.70;47.20;;;;;;5128218;27;45394;-74
2022/09/06 03:25:09;;;;;;;2.10;1.90;;;25.70;47.20;;;;;;5127502;27;45264;-74
2022/09/06 03:27:36;;;;;;;2.92;2.33;;;25.70;47.30;;;;;;5127376;27;45234;-74
2022/09/06 03:30:04;;;;;;;5.20;1.95;;;25.70;47.40;;;;;;5124122;27;45277;-74
2022/09/06 03:32:31;;;;;;;3.42;2.15;;;25.70;47.30;;;;;;5107058;27;45446;-74
2022/09/06 03:34:58;;;;;;;2.38;2.17;;;25.70;47.30;;;;;;5106736;27;45212;-74
2022/09/06 03:37:25;;;;;;;2.63;2.03;;;25.70;47.20;;;;;;5106475;27;45263;-74
2022/09/06 03:39:51;;;;;;;2.55;2.15;;;25.70;47.40;;;;;;5107067;27;45237;-74
2022/09/06 03:42:20;;;;;;;3.22;1.95;;;25.60;47.30;;;;;;5107196;27;45399;-74
2022/09/06 03:44:47;;;;;;;4.05;2.13;;;25.60;47.40;;;;;;5106566;27;45502;-74
2022/09/06 03:47:14;;;;;;;2.40;2.20;;;25.60;47.40;;;;;;5106509;27;45452;-74
2022/09/06 03:49:41;;;;;;;2.80;2.30;;;25.60;47.50;;;;;;5106850;27;45230;-74
2022/09/06 03:52:07;;;;;;;2.50;2.17;;;25.60;47.40;;;;;;5107153;27;45429;-74
2022/09/06 03:54:34;;;;;;;2.88;1.92;;;25.60;47.60;;;;;;5106529;27;45175;-74
2022/09/06 03:57:01;;;;;;;3.22;2.17;;;25.60;47.40;;;;;;5106493;27;45306;-74
2022/09/06 03:59:29;;;;;;;2.00;1.80;;;25.60;47.30;;;;;;5106671;27;45246;-74
2022/09/06 04:01:56;;;;;;;2.88;2.10;;;25.60;47.50;;;;;;5108013;27;45303;-74
2022/09/06 04:04:23;;;;;;;3.72;1.95;;;25.50;47.50;;;;;;5109901;27;45298;-74
2022/09/06 04:06:50;;;;;;;3.05;2.35;;;25.50;47.40;;;;;;5109910;27;45139;-74
2022/09/06 04:09:17;;;;;;;2.60;2.40;;;25.50;47.40;;;;;;5110014;27;45218;-74
2022/09/06 04:11:43;;;;;;;2.38;2.10;;;25.50;47.40;;;;;;5110394;27;45302;-74
2022/09/06 04:14:10;;;;;;;2.08;1.98;;;25.50;47.40;;;;;;5108995;27;46489;-73
2022/09/06 04:16:38;;;;;;;2.67;1.95;;;25.50;47.50;;;;;;5109657;27;45221;-74
2022/09/06 04:19:05;;;;;;;2.30;2.10;;;25.50;47.40;;;;;;5125321;27;45252;-74
2022/09/06 04:21:32;;;;;;;3.72;2.35;;;25.50;48.10;;;;;;5130774;27;45410;-74
2022/09/06 04:23:59;;;;;;;2.20;2.00;;;25.50;47.50;;;;;;5130490;27;46702;-74
2022/09/06 04:26:26;;;;;;;2.42;1.92;;;25.40;47.40;;;;;;5130375;27;45324;-74
2022/09/06 04:28:53;;;;;;;2.50;2.30;;;25.40;47.40;;;;;;5130662;27;45169;-74
2022/09/06 04:31:19;;;;;;;2.20;1.95;;;25.40;48.00;;;;;;5116902;27;45138;-75
2022/09/06 04:33:48;;;;;;;3.40;1.75;;;25.40;47.50;;;;;;5109601;27;45239;-75
2022/09/06 04:36:14;;;;;;;1.83;1.67;;;25.40;47.40;;;;;;5109361;27;45325;-74
2022/09/06 04:38:42;;;;;;;2.20;2.00;;;25.40;47.60;;;;;;5109436;27;45370;-74
2022/09/06 04:41:09;;;;;;;2.10;2.00;;;25.40;48.00;;;;;;5109856;27;45442;-75
2022/09/06 04:43:36;;;;;;;3.05;1.90;;;25.40;47.50;;;;;;5109479;27;45323;-75
2022/09/06 04:46:04;;;;;;;3.25;1.85;;;25.30;47.40;;;;;;5113409;27;45210;-74
2022/09/06 04:48:31;;;;;;;2.00;1.90;;;25.30;47.50;;;;;;5123483;22;45430;-73
2022/09/06 04:50:59;;;;;;;2.25;2.05;;;25.30;47.50;;;;;;5093941;28;45393;-73
2022/09/06 04:53:26;;;;;;;2.20;2.00;;;25.30;47.40;;;;;;5089969;28;47297;-73
2022/09/06 04:55:53;;;;;;;2.80;1.95;;;25.30;47.40;;;;;;5089831;28;45297;-73
2022/09/06 04:58:20;;;;;;;2.00;1.90;;;25.30;47.50;;;;;;5088698;28;45387;-72
2022/09/06 05:00:46;;;;;;;2.70;2.08;;;25.30;47.50;;;;;;5088068;28;45303;-73
2022/09/06 05:03:13;;;;;;;2.88;1.80;;;25.30;47.50;;;;;;5088294;28;46395;-72
2022/09/06 05:05:40;;;;;;;2.30;2.10;;;25.30;47.60;;;;;;5088591;28;45300;-73
2022/09/06 05:08:08;;;;;;;1.98;1.88;;;25.30;47.50;;;;;;5088487;28;45452;-73
2022/09/06 05:10:35;;;;;;;2.63;2.10;;;25.20;47.50;;;;;;5088443;28;45431;-73
2022/09/06 05:13:02;;;;;;;2.35;2.15;;;25.20;47.60;;;;;;5088058;27;46549;-73
2022/09/06 05:15:29;;;;;;;2.28;2.08;;;25.20;47.70;;;;;;5088052;28;45181;-73
2022/09/06 05:18:02;;;;;;;2.33;2.00;;;25.20;47.70;;;;;;5088260;28;45201;-72
2022/09/06 05:20:29;;;;;;;5.10;2.35;;;25.20;47.80;;;;;;5088401;28;45571;-73
2022/09/06 05:22:56;;;;;;;3.50;2.45;;;25.20;47.70;;;;;;5088279;28;45250;-73
2022/09/06 05:25:24;;;;;;;2.33;2.13;;;25.20;47.70;;;;;;5088034;28;45292;-73
2022/09/06 05:27:51;;;;;;;2.28;2.08;;;25.20;47.70;;;;;;5088174;28;45343;-73
2022/09/06 05:30:18;;;;;;;2.05;1.90;;;25.10;48.00;;;;;;5088305;28;45129;-73
2022/09/06 05:32:45;;;;;;;2.50;1.95;;;25.10;47.90;;;;;;5087765;28;46498;-73
2022/09/06 05:35:12;;;;;;;3.15;2.20;;;25.10;47.80;;;;;;5087958;28;45142;-73
2022/09/06 05:37:38;;;;;;;2.95;2.20;;;25.10;48.00;;;;;;5087960;28;45395;-73
2022/09/06 05:40:06;;;;;;;3.42;2.30;;;25.10;47.90;;;;;;5088078;28;45273;-73
2022/09/06 05:42:34;;;;;;;2.20;2.00;;;25.10;48.00;;;;;;5087935;28;46411;-73
2022/09/06 05:45:01;;;;;;;2.25;1.98;;;25.10;48.10;;;;;;5087688;28;45204;-73
2022/09/06 05:47:29;;;;;;;2.78;2.03;;;25.10;47.90;;;;;;5087208;28;45252;-73
2022/09/06 05:49:57;;;;;;;2.53;2.05;;;25.10;48.00;;;;;;5087682;28;45260;-73
2022/09/06 05:52:23;;;;;;;2.35;2.15;;;25.10;48.10;;;;;;5087552;28;46964;-73
2022/09/06 05:54:50;;;;;;;3.38;2.05;;;25.10;48.10;;;;;;5087696;28;45266;-73
2022/09/06 05:57:17;;;;;;;2.53;2.00;;;25.10;48.70;;;;;;5087686;28;45339;-73
2022/09/06 05:59:45;;;;;;;2.17;2.08;;;25.10;48.10;;;;;;5087828;28;45349;-73
2022/09/06 06:02:12;;;;;;;2.58;2.15;;;25.10;48.40;;;;;;5087614;28;46471;-72
2022/09/06 06:04:39;;;;;;;2.85;2.08;;;25.10;48.40;;;;;;5087201;28;45203;-73
2022/09/06 06:07:06;;;;;;;2.72;2.13;;;25.10;48.60;;;;;;5087232;28;45144;-72
2022/09/06 06:09:32;;;;;;;2.35;2.03;;;25.10;48.20;;;;;;5087218;28;45173;-73
2022/09/06 06:11:59;;;;;;;2.78;2.42;;;25.10;48.10;;;;;;5087217;28;47746;-73
2022/09/06 06:14:26;;;;;;;2.40;2.20;;;25.10;48.40;;;;;;5087190;28;45377;-73
2022/09/06 06:16:54;;;;;;;3.03;2.10;;;25.10;48.00;;;;;;5087143;28;45380;-72
2022/09/06 06:19:21;;;;;;;4.85;2.00;;;25.10;48.30;;;;;;5087363;28;45379;-73
2022/09/06 06:21:48;;;;;;;2.72;2.50;;;25.10;48.10;;;;;;5086777;28;46661;-73
2022/09/06 06:24:14;;;;;;;4.05;2.00;;;25.10;47.80;;;;;;5086462;28;45337;-72
2022/09/06 06:26:41;;;;;;;2.78;2.28;;;25.10;47.80;;;;;;5087232;28;45287;-73
2022/09/06 06:29:08;;;;;;;4.45;2.15;;;25.10;47.70;;;;;;5087198;28;45286;-73
2022/09/06 06:31:35;;;;;;;2.38;2.15;;;25.20;47.90;;;;;;5086265;28;46392;-73
2022/09/06 06:34:04;;;;;;;2.60;2.40;;;25.10;48.20;;;;;;5086715;28;45342;-72
2022/09/06 06:36:32;;;;;;;2.67;2.28;;;25.10;48.20;;;;;;5087060;28;45298;-73
2022/09/06 06:38:59;;;;;;;2.45;2.22;;;25.20;48.10;;;;;;5087323;28;45169;-72
2022/09/06 06:41:26;;;;;;;2.67;1.95;;;25.20;48.00;;;;;;5086609;28;45470;-72
2022/09/06 06:43:53;;;;;;;3.80;2.40;;;25.20;48.70;;;;;;5086458;28;45320;-73
2022/09/06 06:46:20;;;;;;;2.92;2.20;;;25.20;49.20;;;;;;5086789;28;45230;-72
2022/09/06 06:48:47;;;;;;;5.45;2.50;;;25.20;49.50;;;;;;5086599;28;45246;-72
2022/09/06 06:51:17;;;;;;;4.82;2.15;;;25.10;49.90;;;;;;5086453;28;46337;-72
2022/09/06 06:53:46;;;;;;;4.35;2.50;;;25.10;49.20;;;;;;5086596;28;45432;-72
2022/09/06 06:56:17;;;;;;;4.40;2.78;;;25.10;49.60;;;;;;5086884;28;45292;-72
2022/09/06 06:58:44;;;;;;;2.85;1.90;;;25.10;50.00;;;;;;5086975;28;45315;-71
2022/09/06 07:01:12;;;;;;;5.18;2.35;;;25.10;49.70;;;;;;5086267;28;45320;-72
2022/09/06 07:03:39;;;;;;;2.55;2.05;;;25.10;49.80;;;;;;5086368;28;45131;-73
2022/09/06 07:06:06;;;;;;;3.67;2.33;;;25.10;49.80;;;;;;5086553;28;45195;-72
2022/09/06 07:08:34;;;;;;;3.25;2.40;;;25.10;49.30;;;;;;5086497;28;45218;-72
2022/09/06 07:11:01;;;;;;;3.25;2.00;;;25.10;49.30;;;;;;5086190;28;46386;-73
2022/09/06 07:13:28;;;;;;;3.17;2.10;;;25.20;49.20;;;;;;5086270;28;45292;-72
2022/09/06 07:16:06;;;;;;;2.08;1.95;;;25.20;49.30;;;;;;5086294;28;45215;-72
2022/09/06 07:18:33;;;;;;;4.97;2.45;;;25.20;49.30;;;;;;5084729;28;45305;-72
2022/09/06 07:21:00;;;;;;;5.75;2.20;;;25.20;49.00;;;;;;5085873;28;46674;-72
2022/09/06 07:23:27;;;;;;;2.90;2.00;;;25.20;49.70;;;;;;5085685;28;45251;-72
2022/09/06 07:25:55;;;;;;;4.03;2.42;;;25.20;50.20;;;;;;5083428;28;45199;-72
2022/09/06 07:28:22;;;;;;;4.70;2.33;;;25.20;50.20;;;;;;5086393;28;45400;-73
2022/09/06 07:30:49;;;;;;;3.00;2.08;;;25.20;49.60;;;;;;5085663;28;45445;-73
2022/09/06 07:33:16;;;;;;;2.67;2.40;;;25.20;50.10;;;;;;5085752;28;45332;-72
2022/09/06 07:35:42;;;;;;;4.50;2.20;;;25.20;50.00;;;;;;5086269;27;45316;-73
2022/09/06 07:38:09;;;;;;;3.20;2.35;;;25.20;50.30;;;;;;5089597;28;45387;-73
2022/09/06 07:40:36;;;;;;;4.68;2.80;;;25.20;50.70;;;;;;5089480;28;45358;-73
2022/09/06 07:43:04;;;;;;;4.68;2.38;;;25.20;53.10;;;;;;5089511;28;45201;-73
2022/09/06 07:45:34;;;;;;;3.03;2.47;;;25.10;51.50;;;;;;5089878;28;45288;-73
2022/09/06 07:48:01;;;;;;;4.28;2.47;;;25.20;52.10;;;;;;5087477;28;45591;-74
2022/09/06 07:50:29;;;;;;;4.22;2.80;;;25.20;52.80;;;;;;5088299;28;47466;-72
2022/09/06 07:52:58;;;;;;;5.25;2.60;;;25.20;52.90;;;;;;5089465;28;45361;-73
2022/09/06 07:55:25;;;;;;;3.75;2.50;;;25.20;52.90;;;;;;5088846;28;45274;-73
2022/09/06 07:57:52;;;;;;;4.22;2.55;;;25.10;53.20;;;;;;5089653;28;45190;-72
2022/09/06 08:00:20;;;;;;;3.30;2.75;;;25.20;53.30;;;;;;5089016;28;47322;-72
2022/09/06 08:02:47;;;;;;;2.60;2.40;;;25.20;53.20;;;;;;5089207;28;45450;-73
2022/09/06 08:05:14;;;;;;;3.85;2.80;;;25.20;54.20;;;;;;5088944;28;45287;-72
2022/09/06 08:07:41;;;;;;;3.92;2.50;;;25.20;54.50;;;;;;5089571;28;45516;-73
2022/09/06 08:10:09;;;;;;;4.55;2.88;;;25.10;55.10;;;;;;5088371;28;45455;-73
2022/09/06 08:12:35;;;;;;;4.75;2.90;;;25.10;54.20;;;;;;5088962;28;45322;-73
2022/09/06 08:15:02;;;;;;;3.97;2.38;;;25.10;54.50;;;;;;5089587;28;45410;-73
2022/09/06 08:17:34;;;;;;;5.35;2.70;;;25.10;54.50;;;;;;5089307;28;45305;-73
2022/09/06 08:20:01;;;;;;;5.85;2.85;;;25.10;54.40;;;;;;5088849;28;46499;-72
2022/09/06 08:22:32;;;;;;;4.05;2.72;;;25.20;54.70;;;;;;5070432;28;45467;-73
2022/09/06 08:24:59;;;;;;;4.20;2.85;;;25.20;54.60;;;;;;5088995;28;45231;-73
2022/09/06 08:27:25;;;;;;;3.28;2.67;;;25.20;54.60;;;;;;5089322;28;45420;-74
2022/09/06 08:29:52;;;;;;;4.57;2.95;;;25.20;54.80;;;;;;5088790;28;45363;-73
2022/09/06 08:32:19;;;;;;;5.10;2.97;;;25.20;54.90;;;;;;5089045;28;45395;-73
2022/09/06 08:34:47;;;;;;;6.95;2.42;;;25.20;54.90;;;;;;5088652;28;45213;-73
2022/09/06 08:37:14;;;;;;;4.82;3.05;;;25.20;55.40;;;;;;5088938;28;45574;-73
2022/09/06 08:39:41;;;;;;;5.82;2.45;;;25.20;55.70;;;;;;5088726;28;46763;-73
2022/09/06 08:42:08;;;;;;;5.70;2.58;;;25.10;56.90;;;;;;5088833;28;45303;-73
2022/09/06 08:44:37;;;;;;;5.63;3.22;;;25.10;56.90;;;;;;5088263;28;45248;-73
2022/09/06 08:47:06;;;;;;;5.35;2.05;;;25.10;57.50;;;;;;5088436;28;45246;-73
2022/09/06 08:49:35;;;;;;;5.97;2.80;;;25.20;57.00;;;;;;5088020;28;45404;-73
2022/09/06 08:52:07;;;;;;;6.07;2.80;;;25.20;56.60;;;;;;5088230;28;45228;-72
2022/09/06 08:54:36;;;;;;;7.78;2.80;;;25.20;55.60;;;;;;5088472;28;45391;-73
2022/09/06 08:57:07;;;;;;;10.35;2.90;;;25.20;58.80;;;;;;5088605;28;45198;-72
2022/09/06 08:59:37;;;;;;;7.45;2.90;;;25.20;58.90;;;;;;5087965;28;45320;-73
2022/09/06 09:02:11;;;;;;;3.90;2.60;;;25.20;58.60;;;;;;5088303;28;45193;-73
2022/09/06 09:04:41;;;;;;;6.55;2.90;;;25.20;57.30;;;;;;5087498;28;45257;-72
2022/09/06 09:07:26;;;;;;;3.47;2.67;;;25.20;56.90;;;;;;5087830;28;45416;-72
2022/09/06 09:09:52;;;;;;;3.00;2.60;;;25.20;58.70;;;;;;5087684;28;45382;-72
2022/09/06 09:12:21;;;;;;;6.60;2.58;;;25.20;57.80;;;;;;5087387;28;45328;-71
2022/09/06 09:14:48;;;;;;;4.32;2.38;;;25.20;58.10;;;;;;5087575;28;45120;-71
2022/09/06 09:17:19;;;;;;;4.88;2.70;;;25.20;58.50;;;;;;5087852;28;45371;-71
2022/09/06 09:19:45;;;;;;;6.20;2.60;;;25.20;58.70;;;;;;5067388;28;46381;-69
2022/09/06 09:22:14;;;;;;;5.55;2.30;;;25.20;58.70;;;;;;5067789;28;45214;-71
2022/09/06 09:24:41;;;;;;;8.25;2.47;;;25.30;59.30;;;;;;5067591;28;45295;-70
2022/09/06 09:27:10;;;;;;;5.82;2.60;;;25.30;58.80;;;;;;5067679;28;45285;-72
2022/09/06 09:29:56;;;;;;;9.65;3.38;;;25.30;59.60;;;;;;5067636;28;46664;-72
2022/09/06 09:32:29;;;;;;;6.90;2.50;;;25.30;59.20;;;;;;5087835;28;45186;-72
2022/09/06 09:34:58;;;;;;;5.05;2.45;;;25.40;59.40;;;;;;5088022;28;45120;-73
2022/09/06 09:37:26;;;;;;;8.02;2.40;;;25.40;58.70;;;;;;5088048;28;45230;-72
2022/09/06 09:39:54;;;;;;;6.80;2.33;;;25.40;58.30;;;;;;5087659;28;47380;-71
2022/09/06 09:42:24;;;;;;;7.57;2.30;;;25.40;58.80;;;;;;5087572;28;45198;-72
2022/09/06 09:44:51;;;;;;;5.20;2.30;;;25.40;58.30;;;;;;5087764;28;45273;-73
2022/09/06 09:47:26;;;;;;;6.28;2.30;;;25.50;58.20;;;;;;5087527;28;45527;-72
2022/09/06 09:49:53;;;;;;;4.80;1.92;;;25.50;57.70;;;;;;5087088;28;46646;-71
2022/09/06 09:52:26;;;;;;;8.05;2.30;;;25.50;57.70;;;;;;5087690;28;45190;-72
2022/09/06 09:54:54;;;;;;;7.50;2.30;;;25.50;57.90;;;;;;5087706;28;45316;-73
2022/09/06 09:57:22;;;;;;;6.10;2.47;;;25.60;57.90;;;;;;5088240;28;45191;-73
2022/09/06 09:59:51;;;;;;;5.65;2.28;;;25.60;58.00;;;;;;5086678;27;45518;-72
2022/09/06 10:02:19;;;;;;;6.65;2.50;;;25.70;57.90;;;;;;5087628;28;45322;-71
2022/09/06 10:04:48;;;;;;;5.22;2.13;;;25.70;57.70;;;;;;5087586;28;45204;-73
2022/09/06 10:07:16;;;;;;;4.72;2.17;;;25.80;58.20;;;;;;5088242;28;45209;-72
2022/09/06 10:09:45;;;;;;;3.83;2.15;;;25.80;57.50;;;;;;5087112;28;45372;-73
2022/09/06 10:12:18;;;;;;;3.97;2.08;;;25.90;57.20;;;;;;5088135;28;45119;-73
2022/09/06 10:14:46;;;;;;;5.85;2.30;;;25.90;56.90;;;;;;5087794;28;45387;-73
2022/09/06 10:17:29;;;;;;;5.18;2.00;;;26.00;57.00;;;;;;5087824;28;45166;-72
2022/09/06 10:19:56;;;;;;;5.07;1.80;;;26.00;56.70;;;;;;5067228;28;47348;-74
2022/09/06 10:22:30;;;;;;;4.80;2.10;;;26.00;56.60;;;;;;5067079;28;45254;-73
2022/09/06 10:25:14;;;;;;;4.90;2.38;;;26.00;56.40;;;;;;5066977;28;45147;-74
2022/09/06 10:27:49;;;;;;;3.83;1.73;;;26.00;56.20;;;;;;5067936;28;45134;-74
2022/09/06 10:30:16;;;;;;;4.70;1.95;;;26.10;56.10;;;;;;5071651;28;45194;-75
2022/09/06 10:32:46;;;;;;;3.78;1.92;;;26.10;56.00;;;;;;5087009;28;45206;-75
2022/09/06 10:35:16;;;;;;;6.40;1.85;;;26.10;55.70;;;;;;5086831;28;45273;-75
2022/09/06 10:37:48;;;;;;;5.95;2.10;;;26.10;56.10;;;;;;5087570;28;45233;-75
2022/09/06 10:40:24;;;;;;;5.60;1.80;;;26.20;55.50;;;;;;5086896;28;45304;-73
2022/09/06 10:42:52;;;;;;;4.35;2.15;;;26.20;55.30;;;;;;5086754;28;45287;-74
2022/09/06 10:45:33;;;;;;;2.08;1.63;;;26.20;55.30;;;;;;5087204;28;45306;-74
2022/09/06 10:48:03;;;;;;;1.70;1.60;;;26.20;55.00;;;;;;5086941;28;45282;-75
2022/09/06 10:50:40;;;;;;;2.88;1.70;;;26.20;54.80;;;;;;5086078;28;46626;-74
2022/09/06 10:53:10;;;;;;;3.60;1.70;;;26.30;54.60;;;;;;5086573;28;45358;-76
2022/09/06 10:55:40;;;;;;;2.05;1.50;;;26.30;54.70;;;;;;5086669;27;45303;-72
2022/09/06 10:58:09;;;;;;;4.97;1.80;;;26.30;54.60;;;;;;5086227;28;45409;-72
2022/09/06 11:00:36;;;;;;;4.75;2.20;;;26.30;54.60;;;;;;5085760;28;45478;-71
2022/09/06 11:03:07;;;;;;;4.57;1.95;;;26.30;54.70;;;;;;5086385;28;45190;-72
2022/09/06 11:05:36;;;;;;;4.38;1.95;;;26.30;54.70;;;;;;5086337;28;45258;-72
2022/09/06 11:08:05;;;;;;;5.82;2.20;;;26.40;55.30;;;;;;5086385;28;45155;-72
2022/09/06 11:10:33;;;;;;;4.55;2.15;;;26.40;54.80;;;;;;5086678;27;45332;-72
2022/09/06 11:13:02;;;;;;;4.43;2.13;;;26.40;54.90;;;;;;5090279;28;45280;-72
2022/09/06 11:15:31;;;;;;;6.28;2.45;;;26.50;54.90;;;;;;5090205;28;45155;-72
2022/09/06 11:18:03;;;;;;;5.90;2.38;;;26.50;54.90;;;;;;5089824;28;45325;-72
2022/09/06 11:20:33;;;;;;;14.82;2.97;;;26.50;55.00;;;;;;5087218;28;46559;-72
2022/09/06 11:23:11;;;;;;;8.50;2.30;;;26.60;55.00;;;;;;5090368;28;45303;-74
2022/09/06 11:26:09;;;;;;;12.60;2.45;;;26.60;55.00;;;;;;5090389;28;45230;-74
2022/09/06 11:28:38;;;;;;;8.90;2.63;;;26.60;56.40;;;;;;5090861;28;45629;-74
2022/09/06 11:31:05;;;;;;;8.88;2.33;;;26.70;55.50;;;;;;5090501;28;47581;-74
2022/09/06 11:33:34;;;;;;;6.95;2.63;;;26.80;55.90;;;;;;5090537;28;45215;-73
2022/09/06 11:36:19;;;;;;;7.53;2.50;;;26.80;55.80;;;;;;5090504;28;45340;-73
2022/09/06 11:38:54;;;;;;;5.35;2.40;;;26.80;56.10;;;;;;5090714;28;45469;-74
2022/09/06 11:41:21;;;;;;;6.22;2.45;;;26.80;56.10;;;;;;5090283;28;47557;-74
2022/09/06 11:43:50;;;;;;;9.65;2.60;;;26.80;56.10;;;;;;5090196;28;45365;-73
2022/09/06 11:47:06;;;;;;;9.25;2.85;;;26.80;56.20;;;;;;5090222;28;45221;-74
2022/09/06 11:49:42;;;;;;;5.32;2.83;;;26.90;56.30;;;;;;5027167;28;45222;-74
2022/09/06 11:52:58;;;;;;;6.53;2.33;;;26.90;56.40;;;;;;5078991;28;46662;-74
2022/09/06 11:55:31;;;;;;;5.80;2.50;;;26.90;56.40;;;;;;5090155;28;45189;-73
2022/09/06 11:57:58;;;;;;;3.83;2.40;;;26.90;56.30;;;;;;5089829;28;45247;-73
2022/09/06 12:00:26;;;;;;;7.57;2.63;;;26.90;56.30;;;;;;5089860;28;45405;-73
2022/09/06 12:02:53;;;;;;;5.57;2.28;;;26.90;56.10;;;;;;5089759;28;46407;-72
2022/09/06 12:05:25;;;;;;;5.53;2.28;;;26.90;56.20;;;;;;5089651;28;45362;-74
2022/09/06 12:08:26;;;;;;;4.30;2.33;;;26.90;56.10;;;;;;5089805;28;45332;-73
2022/09/06 12:11:21;;;;;;;5.13;2.10;;;26.90;56.10;;;;;;5067685;28;45182;-73
2022/09/06 12:14:01;;;;;;;5.07;2.60;;;27.00;56.20;;;;;;5097177;27;45505;-73
2022/09/06 12:17:05;;;;;;;4.15;2.15;;;27.00;55.80;;;;;;5110148;27;45374;-72
2022/09/06 12:19:41;;;;;;;7.85;2.60;;;27.00;55.60;;;;;;5089909;27;45451;-73
2022/09/06 12:22:41;;;;;;;7.22;2.55;;;27.00;55.60;;;;;;5084659;27;45390;-73
2022/09/06 12:25:16;;;;;;;9.45;2.90;;;27.00;55.50;;;;;;5077183;27;46415;-70
2022/09/06 12:27:51;;;;;;;7.82;2.25;;;27.00;55.40;;;;;;5086333;27;45359;-72
2022/09/06 12:30:31;;;;;;;8.73;2.45;;;27.00;56.00;;;;;;5089207;27;45153;-74
2022/09/06 12:32:58;;;;;;;7.40;2.78;;;27.00;55.20;;;;;;5089981;28;45477;-73
2022/09/06 12:35:27;;;;;;;6.22;2.58;;;27.00;55.20;;;;;;5089470;28;47580;-74
2022/09/06 12:37:55;;;;;;;5.95;2.13;;;27.10;55.10;;;;;;5089815;28;45218;-73
2022/09/06 12:40:22;;;;;;;7.15;2.63;;;27.10;55.10;;;;;;5090307;28;45347;-74
2022/09/06 12:42:49;;;;;;;4.75;2.42;;;27.10;55.30;;;;;;5091243;28;45519;-74
2022/09/06 12:45:16;;;;;;;5.10;2.40;;;27.10;55.10;;;;;;5089639;28;45447;-73
2022/09/06 12:47:44;;;;;;;6.60;2.47;;;27.10;55.10;;;;;;5088704;28;45257;-74
2022/09/06 12:50:15;;;;;;;5.43;2.28;;;27.10;55.00;;;;;;5087592;28;45541;-74
2022/09/06 12:52:51;;;;;;;3.75;2.10;;;27.20;55.10;;;;;;5087991;27;45458;-73
2022/09/06 12:55:22;;;;;;;5.28;2.35;;;27.20;55.00;;;;;;5087523;28;45624;-73
2022/09/06 12:57:50;;;;;;;4.18;2.30;;;27.20;54.90;;;;;;5067665;28;45297;-73